sensor_id;sensor_type;location;lat;lon;timestamp;P1;durP1;ratioP1;P2;durP2;ratioP2
48875;SDS011;34689;51.644;5.618;2022-08-21T00:01:06;3.97;;;1.95;;
48875;SDS011;34689;51.644;5.618;2022-08-21T00:06:04;3.08;;;1.65;;
48875;SDS011;34689;51.644;5.618;2022-08-21T00:08:30;3.10;;;1.60;;
48875;SDS011;34689;51.644;5.618;2022-08-21T00:10:56;2.45;;;1.42;;
48875;SDS011;34689;51.644;5.618;2022-08-21T00:13:21;2.58;;;1.30;;
48875;SDS011;34689;51.644;5.618;2022-08-21T00:15:47;4.18;;;1.80;;
48875;SDS011;34689;51.644;5.618;2022-08-21T00:18:14;4.43;;;1.73;;
48875;SDS011;34689;51.644;5.618;2022-08-21T00:20:43;2.80;;;1.85;;
48875;SDS011;34689;51.644;5.618;2022-08-21T00:23:10;2.65;;;1.92;;
48875;SDS011;34689;51.644;5.618;2022-08-21T00:25:37;4.15;;;2.40;;
48875;SDS011;34689;51.644;5.618;2022-08-21T00:28:03;4.05;;;1.95;;
48875;SDS011;34689;51.644;5.618;2022-08-21T00:30:29;3.20;;;1.73;;
48875;SDS011;34689;51.644;5.618;2022-08-21T00:32:56;3.13;;;1.95;;
48875;SDS011;34689;51.644;5.618;2022-08-21T00:35:23;3.85;;;1.60;;
48875;SDS011;34689;51.644;5.618;2022-08-21T00:37:54;2.97;;;1.77;;
48875;SDS011;34689;51.644;5.618;2022-08-21T00:40:23;2.75;;;1.75;;
48875;SDS011;34689;51.644;5.618;2022-08-21T00:42:55;2.17;;;1.40;;
48875;SDS011;34689;51.644;5.618;2022-08-21T00:45:22;2.72;;;1.50;;
48875;SDS011;34689;51.644;5.618;2022-08-21T00:47:48;3.13;;;1.38;;
48875;SDS011;34689;51.644;5.618;2022-08-21T00:50:15;2.65;;;1.33;;
48875;SDS011;34689;51.644;5.618;2022-08-21T00:52:45;2.72;;;1.70;;
48875;SDS011;34689;51.644;5.618;2022-08-21T00:55:14;3.78;;;1.90;;
48875;SDS011;34689;51.644;5.618;2022-08-21T00:57:45;3.60;;;1.60;;
48875;SDS011;34689;51.644;5.618;2022-08-21T01:02:41;1.85;;;1.60;;
48875;SDS011;34689;51.644;5.618;2022-08-21T01:05:07;3.13;;;1.88;;
48875;SDS011;34689;51.644;5.618;2022-08-21T01:07:35;4.20;;;2.17;;
48875;SDS011;34689;51.644;5.618;2022-08-21T01:10:02;3.17;;;1.80;;
48875;SDS011;34689;51.644;5.618;2022-08-21T01:12:29;2.53;;;1.60;;
48875;SDS011;34689;51.644;5.618;2022-08-21T01:14:55;1.83;;;1.20;;
48875;SDS011;34689;51.644;5.618;2022-08-21T01:17:21;3.78;;;1.40;;
48875;SDS011;34689;51.644;5.618;2022-08-21T01:19:47;2.15;;;1.33;;
48875;SDS011;34689;51.644;5.618;2022-08-21T01:22:13;3.88;;;1.60;;
48875;SDS011;34689;51.644;5.618;2022-08-21T01:24:39;2.95;;;1.52;;
48875;SDS011;34689;51.644;5.618;2022-08-21T01:27:04;3.42;;;1.52;;
48875;SDS011;34689;51.644;5.618;2022-08-21T01:32:04;2.53;;;1.20;;
48875;SDS011;34689;51.644;5.618;2022-08-21T01:34:35;2.80;;;1.65;;
48875;SDS011;34689;51.644;5.618;2022-08-21T01:37:03;1.40;;;1.10;;
48875;SDS011;34689;51.644;5.618;2022-08-21T01:39:29;2.15;;;1.63;;
48875;SDS011;34689;51.644;5.618;2022-08-21T01:41:55;2.22;;;1.30;;
48875;SDS011;34689;51.644;5.618;2022-08-21T01:44:21;3.10;;;1.65;;
48875;SDS011;34689;51.644;5.618;2022-08-21T01:46:47;1.92;;;1.42;;
48875;SDS011;34689;51.644;5.618;2022-08-21T01:49:13;3.05;;;1.83;;
48875;SDS011;34689;51.644;5.618;2022-08-21T01:51:40;3.00;;;1.40;;
48875;SDS011;34689;51.644;5.618;2022-08-21T01:54:07;1.83;;;1.38;;
48875;SDS011;34689;51.644;5.618;2022-08-21T01:56:39;2.55;;;1.67;;
48875;SDS011;34689;51.644;5.618;2022-08-21T01:59:07;4.43;;;1.90;;
48875;SDS011;34689;51.644;5.618;2022-08-21T02:01:34;2.15;;;1.40;;
48875;SDS011;34689;51.644;5.618;2022-08-21T02:04:00;1.90;;;1.42;;
48875;SDS011;34689;51.644;5.618;2022-08-21T02:06:25;2.40;;;1.45;;
48875;SDS011;34689;51.644;5.618;2022-08-21T02:08:51;1.92;;;1.38;;
48875;SDS011;34689;51.644;5.618;2022-08-21T02:11:18;1.77;;;1.27;;
48875;SDS011;34689;51.644;5.618;2022-08-21T02:13:44;2.15;;;1.17;;
48875;SDS011;34689;51.644;5.618;2022-08-21T02:16:09;3.53;;;2.08;;
48875;SDS011;34689;51.644;5.618;2022-08-21T02:18:36;1.50;;;1.35;;
48875;SDS011;34689;51.644;5.618;2022-08-21T02:21:02;1.75;;;1.33;;
48875;SDS011;34689;51.644;5.618;2022-08-21T02:23:29;3.03;;;1.45;;
48875;SDS011;34689;51.644;5.618;2022-08-21T02:25:56;2.70;;;1.23;;
48875;SDS011;34689;51.644;5.618;2022-08-21T02:28:23;3.97;;;1.48;;
48875;SDS011;34689;51.644;5.618;2022-08-21T02:30:49;1.73;;;1.10;;
48875;SDS011;34689;51.644;5.618;2022-08-21T02:33:15;2.97;;;1.30;;
48875;SDS011;34689;51.644;5.618;2022-08-21T02:35:41;4.22;;;2.00;;
48875;SDS011;34689;51.644;5.618;2022-08-21T02:38:10;1.88;;;1.58;;
48875;SDS011;34689;51.644;5.618;2022-08-21T02:40:39;2.38;;;1.35;;
48875;SDS011;34689;51.644;5.618;2022-08-21T02:43:06;1.40;;;1.13;;
48875;SDS011;34689;51.644;5.618;2022-08-21T02:45:32;3.15;;;1.73;;
48875;SDS011;34689;51.644;5.618;2022-08-21T02:48:01;2.28;;;1.58;;
48875;SDS011;34689;51.644;5.618;2022-08-21T02:50:34;3.45;;;1.33;;
48875;SDS011;34689;51.644;5.618;2022-08-21T02:53:05;1.73;;;1.10;;
48875;SDS011;34689;51.644;5.618;2022-08-21T02:55:33;2.45;;;1.30;;
48875;SDS011;34689;51.644;5.618;2022-08-21T02:58:01;2.22;;;1.35;;
48875;SDS011;34689;51.644;5.618;2022-08-21T03:00:28;1.33;;;0.82;;
48875;SDS011;34689;51.644;5.618;2022-08-21T03:02:55;3.40;;;1.60;;
48875;SDS011;34689;51.644;5.618;2022-08-21T03:05:24;4.05;;;1.98;;
48875;SDS011;34689;51.644;5.618;2022-08-21T03:07:51;2.05;;;1.35;;
48875;SDS011;34689;51.644;5.618;2022-08-21T03:10:20;1.48;;;1.05;;
48875;SDS011;34689;51.644;5.618;2022-08-21T03:12:47;3.03;;;1.92;;
48875;SDS011;34689;51.644;5.618;2022-08-21T03:15:14;2.42;;;1.73;;
48875;SDS011;34689;51.644;5.618;2022-08-21T03:17:44;2.75;;;1.75;;
48875;SDS011;34689;51.644;5.618;2022-08-21T03:20:11;3.30;;;1.60;;
48875;SDS011;34689;51.644;5.618;2022-08-21T03:22:39;2.58;;;1.50;;
48875;SDS011;34689;51.644;5.618;2022-08-21T03:25:05;1.98;;;1.60;;
48875;SDS011;34689;51.644;5.618;2022-08-21T03:27:31;1.45;;;1.30;;
48875;SDS011;34689;51.644;5.618;2022-08-21T03:29:59;1.70;;;1.20;;
48875;SDS011;34689;51.644;5.618;2022-08-21T03:32:26;1.42;;;1.20;;
48875;SDS011;34689;51.644;5.618;2022-08-21T03:34:52;1.52;;;1.25;;
48875;SDS011;34689;51.644;5.618;2022-08-21T03:37:17;1.80;;;1.50;;
48875;SDS011;34689;51.644;5.618;2022-08-21T03:39:43;1.83;;;1.63;;
48875;SDS011;34689;51.644;5.618;2022-08-21T03:42:10;1.65;;;1.27;;
48875;SDS011;34689;51.644;5.618;2022-08-21T03:44:36;1.15;;;1.05;;
48875;SDS011;34689;51.644;5.618;2022-08-21T03:47:04;3.10;;;1.42;;
48875;SDS011;34689;51.644;5.618;2022-08-21T03:49:31;1.67;;;1.40;;
48875;SDS011;34689;51.644;5.618;2022-08-21T03:51:58;2.17;;;1.55;;
48875;SDS011;34689;51.644;5.618;2022-08-21T03:54:24;2.70;;;1.70;;
48875;SDS011;34689;51.644;5.618;2022-08-21T03:56:50;1.33;;;1.10;;
48875;SDS011;34689;51.644;5.618;2022-08-21T03:59:16;1.70;;;1.45;;
48875;SDS011;34689;51.644;5.618;2022-08-21T04:01:55;2.63;;;1.83;;
48875;SDS011;34689;51.644;5.618;2022-08-21T04:04:23;1.25;;;1.00;;
48875;SDS011;34689;51.644;5.618;2022-08-21T04:06:49;1.95;;;1.38;;
48875;SDS011;34689;51.644;5.618;2022-08-21T04:09:15;2.53;;;1.52;;
48875;SDS011;34689;51.644;5.618;2022-08-21T04:11:44;1.88;;;1.23;;
48875;SDS011;34689;51.644;5.618;2022-08-21T04:14:11;3.50;;;1.50;;
48875;SDS011;34689;51.644;5.618;2022-08-21T04:16:39;1.70;;;1.38;;
48875;SDS011;34689;51.644;5.618;2022-08-21T04:19:05;2.30;;;1.60;;
48875;SDS011;34689;51.644;5.618;2022-08-21T04:21:31;2.75;;;1.60;;
48875;SDS011;34689;51.644;5.618;2022-08-21T04:23:57;3.25;;;2.20;;
48875;SDS011;34689;51.644;5.618;2022-08-21T04:26:24;2.50;;;1.92;;
48875;SDS011;34689;51.644;5.618;2022-08-21T04:28:50;2.00;;;1.38;;
48875;SDS011;34689;51.644;5.618;2022-08-21T04:31:17;2.17;;;1.33;;
48875;SDS011;34689;51.644;5.618;2022-08-21T04:33:43;4.25;;;2.42;;
48875;SDS011;34689;51.644;5.618;2022-08-21T04:36:10;2.15;;;1.55;;
48875;SDS011;34689;51.644;5.618;2022-08-21T04:38:41;2.10;;;1.65;;
48875;SDS011;34689;51.644;5.618;2022-08-21T04:41:06;1.65;;;1.40;;
48875;SDS011;34689;51.644;5.618;2022-08-21T04:43:32;1.58;;;1.35;;
48875;SDS011;34689;51.644;5.618;2022-08-21T04:45:58;1.98;;;1.42;;
48875;SDS011;34689;51.644;5.618;2022-08-21T04:48:25;3.50;;;1.70;;
48875;SDS011;34689;51.644;5.618;2022-08-21T04:50:53;2.67;;;1.60;;
48875;SDS011;34689;51.644;5.618;2022-08-21T04:55:53;2.53;;;1.83;;
48875;SDS011;34689;51.644;5.618;2022-08-21T04:58:21;2.40;;;1.88;;
48875;SDS011;34689;51.644;5.618;2022-08-21T05:00:51;2.03;;;1.48;;
48875;SDS011;34689;51.644;5.618;2022-08-21T05:03:18;5.38;;;1.70;;
48875;SDS011;34689;51.644;5.618;2022-08-21T05:05:44;2.20;;;1.50;;
48875;SDS011;34689;51.644;5.618;2022-08-21T05:08:12;2.35;;;1.27;;
48875;SDS011;34689;51.644;5.618;2022-08-21T05:10:41;1.90;;;1.60;;
48875;SDS011;34689;51.644;5.618;2022-08-21T05:13:09;3.58;;;2.10;;
48875;SDS011;34689;51.644;5.618;2022-08-21T05:15:36;3.45;;;2.17;;
48875;SDS011;34689;51.644;5.618;2022-08-21T05:18:02;2.03;;;1.83;;
48875;SDS011;34689;51.644;5.618;2022-08-21T05:20:28;3.10;;;2.20;;
48875;SDS011;34689;51.644;5.618;2022-08-21T05:22:54;5.18;;;2.05;;
48875;SDS011;34689;51.644;5.618;2022-08-21T05:25:20;3.80;;;2.53;;
48875;SDS011;34689;51.644;5.618;2022-08-21T05:27:45;3.78;;;2.65;;
48875;SDS011;34689;51.644;5.618;2022-08-21T05:30:11;2.20;;;1.90;;
48875;SDS011;34689;51.644;5.618;2022-08-21T05:32:37;2.60;;;2.17;;
48875;SDS011;34689;51.644;5.618;2022-08-21T05:35:05;2.22;;;1.77;;
48875;SDS011;34689;51.644;5.618;2022-08-21T05:37:31;3.80;;;2.13;;
48875;SDS011;34689;51.644;5.618;2022-08-21T05:39:58;2.75;;;2.25;;
48875;SDS011;34689;51.644;5.618;2022-08-21T05:42:24;4.00;;;2.75;;
48875;SDS011;34689;51.644;5.618;2022-08-21T05:44:53;7.00;;;2.92;;
48875;SDS011;34689;51.644;5.618;2022-08-21T05:47:18;3.10;;;2.38;;
48875;SDS011;34689;51.644;5.618;2022-08-21T05:49:44;3.97;;;2.67;;
48875;SDS011;34689;51.644;5.618;2022-08-21T05:52:09;3.00;;;2.10;;
48875;SDS011;34689;51.644;5.618;2022-08-21T05:54:36;4.20;;;2.17;;
48875;SDS011;34689;51.644;5.618;2022-08-21T05:57:02;3.03;;;2.30;;
48875;SDS011;34689;51.644;5.618;2022-08-21T05:59:28;2.88;;;2.25;;
48875;SDS011;34689;51.644;5.618;2022-08-21T06:01:54;5.32;;;2.38;;
48875;SDS011;34689;51.644;5.618;2022-08-21T06:04:20;6.82;;;2.92;;
48875;SDS011;34689;51.644;5.618;2022-08-21T06:06:45;4.40;;;2.40;;
48875;SDS011;34689;51.644;5.618;2022-08-21T06:09:12;3.70;;;2.35;;
48875;SDS011;34689;51.644;5.618;2022-08-21T06:11:38;4.47;;;2.63;;
48875;SDS011;34689;51.644;5.618;2022-08-21T06:14:04;2.90;;;1.80;;
48875;SDS011;34689;51.644;5.618;2022-08-21T06:16:31;3.13;;;2.58;;
48875;SDS011;34689;51.644;5.618;2022-08-21T06:18:57;2.60;;;2.10;;
48875;SDS011;34689;51.644;5.618;2022-08-21T06:21:22;3.90;;;2.33;;
48875;SDS011;34689;51.644;5.618;2022-08-21T06:23:48;3.45;;;1.95;;
48875;SDS011;34689;51.644;5.618;2022-08-21T06:26:14;2.50;;;1.88;;
48875;SDS011;34689;51.644;5.618;2022-08-21T06:28:40;4.60;;;2.38;;
48875;SDS011;34689;51.644;5.618;2022-08-21T06:31:10;4.38;;;1.88;;
48875;SDS011;34689;51.644;5.618;2022-08-21T06:33:39;3.92;;;2.63;;
48875;SDS011;34689;51.644;5.618;2022-08-21T06:36:04;3.92;;;2.28;;
48875;SDS011;34689;51.644;5.618;2022-08-21T06:38:30;5.90;;;2.05;;
48875;SDS011;34689;51.644;5.618;2022-08-21T06:40:56;2.85;;;2.15;;
48875;SDS011;34689;51.644;5.618;2022-08-21T06:43:22;3.85;;;1.90;;
48875;SDS011;34689;51.644;5.618;2022-08-21T06:45:47;7.25;;;2.80;;
48875;SDS011;34689;51.644;5.618;2022-08-21T06:48:14;6.15;;;3.03;;
48875;SDS011;34689;51.644;5.618;2022-08-21T06:50:39;4.32;;;1.88;;
48875;SDS011;34689;51.644;5.618;2022-08-21T06:53:10;3.33;;;1.88;;
48875;SDS011;34689;51.644;5.618;2022-08-21T06:55:42;3.90;;;1.80;;
48875;SDS011;34689;51.644;5.618;2022-08-21T06:58:08;4.88;;;2.53;;
48875;SDS011;34689;51.644;5.618;2022-08-21T07:00:37;2.58;;;1.60;;
48875;SDS011;34689;51.644;5.618;2022-08-21T07:03:05;4.90;;;1.95;;
48875;SDS011;34689;51.644;5.618;2022-08-21T07:05:31;2.63;;;1.83;;
48875;SDS011;34689;51.644;5.618;2022-08-21T07:07:57;4.93;;;1.77;;
48875;SDS011;34689;51.644;5.618;2022-08-21T07:10:24;4.38;;;2.38;;
48875;SDS011;34689;51.644;5.618;2022-08-21T07:12:50;3.83;;;1.73;;
48875;SDS011;34689;51.644;5.618;2022-08-21T07:15:18;1.17;;;1.00;;
48875;SDS011;34689;51.644;5.618;2022-08-21T07:17:44;4.20;;;2.00;;
48875;SDS011;34689;51.644;5.618;2022-08-21T07:20:10;4.88;;;1.85;;
48875;SDS011;34689;51.644;5.618;2022-08-21T07:22:36;3.42;;;2.17;;
48875;SDS011;34689;51.644;5.618;2022-08-21T07:25:04;1.90;;;1.25;;
48875;SDS011;34689;51.644;5.618;2022-08-21T07:27:31;3.00;;;1.17;;
48875;SDS011;34689;51.644;5.618;2022-08-21T07:29:57;3.15;;;1.65;;
48875;SDS011;34689;51.644;5.618;2022-08-21T07:32:23;3.10;;;1.30;;
48875;SDS011;34689;51.644;5.618;2022-08-21T07:34:49;2.47;;;1.13;;
48875;SDS011;34689;51.644;5.618;2022-08-21T07:37:14;3.25;;;1.85;;
48875;SDS011;34689;51.644;5.618;2022-08-21T07:39:40;1.77;;;1.15;;
48875;SDS011;34689;51.644;5.618;2022-08-21T07:42:06;3.88;;;1.50;;
48875;SDS011;34689;51.644;5.618;2022-08-21T07:44:32;2.75;;;1.65;;
48875;SDS011;34689;51.644;5.618;2022-08-21T07:46:59;4.20;;;1.88;;
48875;SDS011;34689;51.644;5.618;2022-08-21T07:49:26;2.88;;;1.20;;
48875;SDS011;34689;51.644;5.618;2022-08-21T07:51:52;2.10;;;0.95;;
48875;SDS011;34689;51.644;5.618;2022-08-21T07:54:18;2.13;;;1.50;;
48875;SDS011;34689;51.644;5.618;2022-08-21T07:56:43;6.95;;;1.85;;
48875;SDS011;34689;51.644;5.618;2022-08-21T07:59:09;3.45;;;2.33;;
48875;SDS011;34689;51.644;5.618;2022-08-21T08:01:35;2.25;;;1.23;;
48875;SDS011;34689;51.644;5.618;2022-08-21T08:04:00;1.48;;;0.90;;
48875;SDS011;34689;51.644;5.618;2022-08-21T08:06:26;4.13;;;1.65;;
48875;SDS011;34689;51.644;5.618;2022-08-21T08:08:55;2.65;;;1.80;;
48875;SDS011;34689;51.644;5.618;2022-08-21T08:11:21;2.30;;;1.15;;
48875;SDS011;34689;51.644;5.618;2022-08-21T08:13:48;1.83;;;0.90;;
48875;SDS011;34689;51.644;5.618;2022-08-21T08:16:15;2.60;;;1.10;;
48875;SDS011;34689;51.644;5.618;2022-08-21T08:18:41;3.55;;;1.92;;
48875;SDS011;34689;51.644;5.618;2022-08-21T08:21:08;3.28;;;1.65;;
48875;SDS011;34689;51.644;5.618;2022-08-21T08:23:34;4.80;;;2.25;;
48875;SDS011;34689;51.644;5.618;2022-08-21T08:26:00;6.07;;;1.92;;
48875;SDS011;34689;51.644;5.618;2022-08-21T08:28:28;4.40;;;1.80;;
48875;SDS011;34689;51.644;5.618;2022-08-21T08:30:55;2.20;;;1.67;;
48875;SDS011;34689;51.644;5.618;2022-08-21T08:33:23;4.53;;;2.03;;
48875;SDS011;34689;51.644;5.618;2022-08-21T08:35:49;2.72;;;1.33;;
48875;SDS011;34689;51.644;5.618;2022-08-21T08:38:17;2.55;;;1.15;;
48875;SDS011;34689;51.644;5.618;2022-08-21T08:43:25;4.95;;;1.83;;
48875;SDS011;34689;51.644;5.618;2022-08-21T08:45:53;4.45;;;2.17;;
48875;SDS011;34689;51.644;5.618;2022-08-21T08:48:46;3.20;;;1.60;;
48875;SDS011;34689;51.644;5.618;2022-08-21T08:51:24;3.92;;;1.40;;
48875;SDS011;34689;51.644;5.618;2022-08-21T08:53:59;2.67;;;0.90;;
48875;SDS011;34689;51.644;5.618;2022-08-21T08:56:29;1.77;;;1.23;;
48875;SDS011;34689;51.644;5.618;2022-08-21T08:58:59;2.63;;;1.35;;
48875;SDS011;34689;51.644;5.618;2022-08-21T09:01:31;1.65;;;0.90;;
48875;SDS011;34689;51.644;5.618;2022-08-21T09:03:57;2.03;;;1.05;;
48875;SDS011;34689;51.644;5.618;2022-08-21T09:25:48;2.10;;;1.00;;
48875;SDS011;34689;51.644;5.618;2022-08-21T09:28:16;2.67;;;1.05;;
48875;SDS011;34689;51.644;5.618;2022-08-21T09:30:42;1.90;;;0.65;;
48875;SDS011;34689;51.644;5.618;2022-08-21T09:33:09;5.38;;;1.23;;
48875;SDS011;34689;51.644;5.618;2022-08-21T09:35:47;3.45;;;1.48;;
48875;SDS011;34689;51.644;5.618;2022-08-21T09:40:58;3.03;;;0.90;;
48875;SDS011;34689;51.644;5.618;2022-08-21T09:43:29;1.98;;;0.70;;
48875;SDS011;34689;51.644;5.618;2022-08-21T09:48:42;2.35;;;1.02;;
48875;SDS011;34689;51.644;5.618;2022-08-21T09:51:17;2.15;;;0.77;;
48875;SDS011;34689;51.644;5.618;2022-08-21T09:56:38;3.30;;;1.08;;
48875;SDS011;34689;51.644;5.618;2022-08-21T09:59:34;4.13;;;0.90;;
48875;SDS011;34689;51.644;5.618;2022-08-21T10:02:03;4.35;;;1.33;;
48875;SDS011;34689;51.644;5.618;2022-08-21T10:05:39;3.25;;;1.02;;
48875;SDS011;34689;51.644;5.618;2022-08-21T10:07:49;2.58;;;1.13;;
48875;SDS011;34689;51.644;5.618;2022-08-21T10:18:51;1.65;;;0.95;;
48875;SDS011;34689;51.644;5.618;2022-08-21T10:27:20;0.85;;;0.68;;
48875;SDS011;34689;51.644;5.618;2022-08-21T10:35:28;1.75;;;0.43;;
48875;SDS011;34689;51.644;5.618;2022-08-21T10:41:01;1.48;;;0.57;;
48875;SDS011;34689;51.644;5.618;2022-08-21T10:43:56;1.00;;;0.55;;
48875;SDS011;34689;51.644;5.618;2022-08-21T10:46:35;2.55;;;0.50;;
48875;SDS011;34689;51.644;5.618;2022-08-21T10:57:54;1.73;;;0.88;;
48875;SDS011;34689;51.644;5.618;2022-08-21T11:00:23;1.20;;;0.63;;
48875;SDS011;34689;51.644;5.618;2022-08-21T11:02:58;1.95;;;0.70;;
48875;SDS011;34689;51.644;5.618;2022-08-21T11:08:01;1.83;;;0.60;;
48875;SDS011;34689;51.644;5.618;2022-08-21T11:10:46;1.13;;;0.50;;
48875;SDS011;34689;51.644;5.618;2022-08-21T11:19:35;2.97;;;0.70;;
48875;SDS011;34689;51.644;5.618;2022-08-21T11:24:29;2.15;;;0.57;;
48875;SDS011;34689;51.644;5.618;2022-08-21T11:28:20;2.67;;;0.57;;
48875;SDS011;34689;51.644;5.618;2022-08-21T11:30:18;3.78;;;0.60;;
48875;SDS011;34689;51.644;5.618;2022-08-21T11:33:05;3.10;;;1.13;;
48875;SDS011;34689;51.644;5.618;2022-08-21T11:35:53;1.70;;;0.80;;
48875;SDS011;34689;51.644;5.618;2022-08-21T11:38:42;1.20;;;0.75;;
48875;SDS011;34689;51.644;5.618;2022-08-21T11:41:20;1.77;;;0.73;;
48875;SDS011;34689;51.644;5.618;2022-08-21T11:44:38;4.13;;;1.10;;
48875;SDS011;34689;51.644;5.618;2022-08-21T11:47:49;0.82;;;0.50;;
48875;SDS011;34689;51.644;5.618;2022-08-21T11:50:23;1.50;;;0.57;;
48875;SDS011;34689;51.644;5.618;2022-08-21T11:58:20;3.65;;;1.30;;
48875;SDS011;34689;51.644;5.618;2022-08-21T12:00:59;1.77;;;0.60;;
48875;SDS011;34689;51.644;5.618;2022-08-21T12:03:36;1.85;;;0.70;;
48875;SDS011;34689;51.644;5.618;2022-08-21T12:06:11;1.95;;;0.45;;
48875;SDS011;34689;51.644;5.618;2022-08-21T12:11:20;2.25;;;0.50;;
48875;SDS011;34689;51.644;5.618;2022-08-21T12:13:55;1.40;;;0.50;;
48875;SDS011;34689;51.644;5.618;2022-08-21T12:16:35;1.23;;;0.65;;
48875;SDS011;34689;51.644;5.618;2022-08-21T12:19:03;1.75;;;0.88;;
48875;SDS011;34689;51.644;5.618;2022-08-21T12:22:18;2.00;;;0.52;;
48875;SDS011;34689;51.644;5.618;2022-08-21T12:27:28;3.03;;;0.75;;
48875;SDS011;34689;51.644;5.618;2022-08-21T12:30:00;1.23;;;0.47;;
48875;SDS011;34689;51.644;5.618;2022-08-21T12:32:44;2.47;;;0.60;;
48875;SDS011;34689;51.644;5.618;2022-08-21T12:35:20;1.70;;;0.95;;
48875;SDS011;34689;51.644;5.618;2022-08-21T12:38:48;1.55;;;0.43;;
48875;SDS011;34689;51.644;5.618;2022-08-21T12:40:42;3.72;;;1.02;;
48875;SDS011;34689;51.644;5.618;2022-08-21T12:43:13;0.60;;;0.57;;
48875;SDS011;34689;51.644;5.618;2022-08-21T12:46:06;1.98;;;0.55;;
48875;SDS011;34689;51.644;5.618;2022-08-21T12:48:38;1.13;;;0.50;;
48875;SDS011;34689;51.644;5.618;2022-08-21T12:51:14;0.88;;;0.60;;
48875;SDS011;34689;51.644;5.618;2022-08-21T12:56:29;1.35;;;0.60;;
48875;SDS011;34689;51.644;5.618;2022-08-21T12:58:57;0.40;;;0.32;;
48875;SDS011;34689;51.644;5.618;2022-08-21T13:01:33;0.40;;;0.22;;
48875;SDS011;34689;51.644;5.618;2022-08-21T13:04:17;1.55;;;0.52;;
48875;SDS011;34689;51.644;5.618;2022-08-21T13:09:18;1.58;;;0.50;;
48875;SDS011;34689;51.644;5.618;2022-08-21T13:11:47;0.57;;;0.40;;
48875;SDS011;34689;51.644;5.618;2022-08-21T13:14:17;1.08;;;0.38;;
48875;SDS011;34689;51.644;5.618;2022-08-21T13:16:57;2.53;;;0.57;;
48875;SDS011;34689;51.644;5.618;2022-08-21T13:19:23;2.58;;;0.50;;
48875;SDS011;34689;51.644;5.618;2022-08-21T13:21:50;2.28;;;0.75;;
48875;SDS011;34689;51.644;5.618;2022-08-21T13:26:48;0.43;;;0.32;;
48875;SDS011;34689;51.644;5.618;2022-08-21T13:29:15;0.90;;;0.50;;
48875;SDS011;34689;51.644;5.618;2022-08-21T13:31:47;2.92;;;0.63;;
48875;SDS011;34689;51.644;5.618;2022-08-21T13:34:17;1.33;;;0.50;;
48875;SDS011;34689;51.644;5.618;2022-08-21T13:36:48;1.77;;;0.60;;
48875;SDS011;34689;51.644;5.618;2022-08-21T13:39:19;0.50;;;0.35;;
48875;SDS011;34689;51.644;5.618;2022-08-21T13:41:48;2.42;;;0.60;;
48875;SDS011;34689;51.644;5.618;2022-08-21T13:44:40;0.75;;;0.40;;
48875;SDS011;34689;51.644;5.618;2022-08-21T13:47:11;2.38;;;1.20;;
48875;SDS011;34689;51.644;5.618;2022-08-21T13:49:45;1.85;;;0.50;;
48875;SDS011;34689;51.644;5.618;2022-08-21T13:52:17;0.88;;;0.57;;
48875;SDS011;34689;51.644;5.618;2022-08-21T13:54:51;1.53;;;0.70;;
48875;SDS011;34689;51.644;5.618;2022-08-21T13:57:29;2.55;;;0.55;;
48875;SDS011;34689;51.644;5.618;2022-08-21T14:00:09;0.93;;;0.40;;
48875;SDS011;34689;51.644;5.618;2022-08-21T14:02:50;0.55;;;0.20;;
48875;SDS011;34689;51.644;5.618;2022-08-21T14:05:22;1.40;;;0.40;;
48875;SDS011;34689;51.644;5.618;2022-08-21T14:07:57;1.13;;;0.40;;
48875;SDS011;34689;51.644;5.618;2022-08-21T14:10:43;0.57;;;0.30;;
48875;SDS011;34689;51.644;5.618;2022-08-21T14:18:45;2.28;;;0.60;;
48875;SDS011;34689;51.644;5.618;2022-08-21T14:21:41;1.83;;;0.37;;
48875;SDS011;34689;51.644;5.618;2022-08-21T14:26:42;1.90;;;0.50;;
48875;SDS011;34689;51.644;5.618;2022-08-21T14:29:15;1.77;;;0.82;;
48875;SDS011;34689;51.644;5.618;2022-08-21T14:31:42;1.13;;;0.40;;
48875;SDS011;34689;51.644;5.618;2022-08-21T14:34:14;0.65;;;0.32;;
48875;SDS011;34689;51.644;5.618;2022-08-21T14:36:41;1.42;;;0.45;;
48875;SDS011;34689;51.644;5.618;2022-08-21T14:39:10;2.30;;;0.88;;
48875;SDS011;34689;51.644;5.618;2022-08-21T14:41:36;1.35;;;0.35;;
48875;SDS011;34689;51.644;5.618;2022-08-21T14:44:02;3.92;;;0.52;;
48875;SDS011;34689;51.644;5.618;2022-08-21T14:46:30;2.10;;;0.47;;
48875;SDS011;34689;51.644;5.618;2022-08-21T14:48:59;1.83;;;0.50;;
48875;SDS011;34689;51.644;5.618;2022-08-21T14:51:24;1.33;;;0.40;;
48875;SDS011;34689;51.644;5.618;2022-08-21T14:53:50;1.13;;;0.45;;
48875;SDS011;34689;51.644;5.618;2022-08-21T14:56:16;0.75;;;0.30;;
48875;SDS011;34689;51.644;5.618;2022-08-21T14:58:43;2.78;;;0.40;;
48875;SDS011;34689;51.644;5.618;2022-08-21T15:01:13;2.13;;;0.50;;
48875;SDS011;34689;51.644;5.618;2022-08-21T15:03:40;4.25;;;0.70;;
48875;SDS011;34689;51.644;5.618;2022-08-21T15:06:09;2.85;;;0.45;;
48875;SDS011;34689;51.644;5.618;2022-08-21T15:08:36;4.03;;;0.60;;
48875;SDS011;34689;51.644;5.618;2022-08-21T15:11:02;0.40;;;0.30;;
48875;SDS011;34689;51.644;5.618;2022-08-21T15:13:28;1.13;;;0.63;;
48875;SDS011;34689;51.644;5.618;2022-08-21T15:15:55;0.75;;;0.30;;
48875;SDS011;34689;51.644;5.618;2022-08-21T15:18:25;1.50;;;0.60;;
48875;SDS011;34689;51.644;5.618;2022-08-21T15:20:52;2.50;;;0.50;;
48875;SDS011;34689;51.644;5.618;2022-08-21T15:23:18;2.38;;;0.60;;
48875;SDS011;34689;51.644;5.618;2022-08-21T15:25:45;1.23;;;0.50;;
48875;SDS011;34689;51.644;5.618;2022-08-21T15:28:12;1.23;;;0.45;;
48875;SDS011;34689;51.644;5.618;2022-08-21T15:30:40;0.75;;;0.30;;
48875;SDS011;34689;51.644;5.618;2022-08-21T15:33:06;0.57;;;0.30;;
48875;SDS011;34689;51.644;5.618;2022-08-21T15:35:33;0.88;;;0.55;;
48875;SDS011;34689;51.644;5.618;2022-08-21T15:37:59;2.55;;;0.47;;
48875;SDS011;34689;51.644;5.618;2022-08-21T15:40:25;0.95;;;0.40;;
48875;SDS011;34689;51.644;5.618;2022-08-21T15:42:52;2.67;;;0.60;;
48875;SDS011;34689;51.644;5.618;2022-08-21T15:45:22;2.53;;;0.70;;
48875;SDS011;34689;51.644;5.618;2022-08-21T15:47:51;1.00;;;0.45;;
48875;SDS011;34689;51.644;5.618;2022-08-21T15:50:18;1.02;;;0.30;;
48875;SDS011;34689;51.644;5.618;2022-08-21T15:52:46;1.10;;;0.22;;
48875;SDS011;34689;51.644;5.618;2022-08-21T15:55:12;0.60;;;0.30;;
48875;SDS011;34689;51.644;5.618;2022-08-21T15:57:42;2.25;;;0.40;;
48875;SDS011;34689;51.644;5.618;2022-08-21T16:00:19;2.22;;;0.47;;
48875;SDS011;34689;51.644;5.618;2022-08-21T16:02:48;0.75;;;0.30;;
48875;SDS011;34689;51.644;5.618;2022-08-21T16:05:21;3.13;;;0.45;;
48875;SDS011;34689;51.644;5.618;2022-08-21T16:07:47;3.53;;;0.55;;
48875;SDS011;34689;51.644;5.618;2022-08-21T16:10:15;2.17;;;0.65;;
48875;SDS011;34689;51.644;5.618;2022-08-21T16:12:53;1.20;;;0.35;;
48875;SDS011;34689;51.644;5.618;2022-08-21T16:15:23;1.35;;;0.40;;
48875;SDS011;34689;51.644;5.618;2022-08-21T16:17:50;1.48;;;0.30;;
48875;SDS011;34689;51.644;5.618;2022-08-21T16:20:20;2.50;;;0.45;;
48875;SDS011;34689;51.644;5.618;2022-08-21T16:22:49;1.10;;;0.30;;
48875;SDS011;34689;51.644;5.618;2022-08-21T16:25:18;1.10;;;0.60;;
48875;SDS011;34689;51.644;5.618;2022-08-21T16:27:46;1.83;;;0.47;;
48875;SDS011;34689;51.644;5.618;2022-08-21T16:30:14;0.30;;;0.30;;
48875;SDS011;34689;51.644;5.618;2022-08-21T16:32:41;0.88;;;0.40;;
48875;SDS011;34689;51.644;5.618;2022-08-21T16:35:08;3.40;;;0.82;;
48875;SDS011;34689;51.644;5.618;2022-08-21T16:37:37;2.22;;;0.40;;
48875;SDS011;34689;51.644;5.618;2022-08-21T16:40:03;0.40;;;0.30;;
48875;SDS011;34689;51.644;5.618;2022-08-21T16:42:29;0.75;;;0.30;;
48875;SDS011;34689;51.644;5.618;2022-08-21T16:44:59;0.95;;;0.30;;
48875;SDS011;34689;51.644;5.618;2022-08-21T16:47:27;3.15;;;0.65;;
48875;SDS011;34689;51.644;5.618;2022-08-21T16:49:53;1.02;;;0.55;;
48875;SDS011;34689;51.644;5.618;2022-08-21T16:52:18;1.52;;;0.35;;